Time;durP1;ratioP1;P1;durP2;ratioP2;P2;SDS_P1;SDS_P2;PMS_P1;PMS_P2;Temp;Humidity;BMP_temperature;BMP_pressure;BME280_temperature;BME280_humidity;BME280_pressure;Samples;Min_cycle;Max_cycle;Signal;HPM_P1;HPM_P2
2022/06/22 00:00:13;;;;;;;11.53;5.90;;;;;;;;;;4943676;28;20604;-73
2022/06/22 00:02:40;;;;;;;11.37;6.20;;;;;;;;;;4975368;28;20227;-73
2022/06/22 00:05:11;;;;;;;15.03;6.70;;;;;;;;;;4984387;28;20247;-73
2022/06/22 00:07:39;;;;;;;11.97;6.13;;;;;;;;;;4968861;28;20265;-73
2022/06/22 00:10:13;;;;;;;14.00;5.70;;;;;;;;;;4978060;28;20236;-73
2022/06/22 00:12:40;;;;;;;14.67;5.53;;;;;;;;;;4963942;28;20614;-73
2022/06/22 00:15:25;;;;;;;9.50;5.50;;;;;;;;;;4967323;28;20797;-73
2022/06/22 00:17:53;;;;;;;12.47;5.30;;;;;;;;;;4981117;28;20318;-73
2022/06/22 00:20:26;;;;;;;11.23;5.10;;;;;;;;;;4959730;28;249206;-73
2022/06/22 00:22:54;;;;;;;9.53;5.80;;;;;;;;;;4951430;28;221206;-73
2022/06/22 00:25:34;;;;;;;10.50;5.50;;;;;;;;;;4969759;28;20224;-73
2022/06/22 00:28:19;;;;;;;10.10;5.40;;;;;;;;;;4961484;28;20235;-73
2022/06/22 00:30:46;;;;;;;10.90;5.70;;;;;;;;;;4975486;28;218468;-74
2022/06/22 00:33:19;;;;;;;9.07;5.37;;;;;;;;;;4983666;28;20565;-73
2022/06/22 00:35:46;;;;;;;9.43;5.70;;;;;;;;;;4953078;28;237805;-73
2022/06/22 00:38:31;;;;;;;9.67;5.67;;;;;;;;;;4972072;28;20235;-73
2022/06/22 00:41:03;;;;;;;9.10;5.23;;;;;;;;;;4963492;28;20582;-73
2022/06/22 00:43:30;;;;;;;8.23;5.00;;;;;;;;;;4982356;28;20228;-73
2022/06/22 00:45:57;;;;;;;11.43;5.50;;;;;;;;;;4984574;28;20227;-73
2022/06/22 00:48:33;;;;;;;10.77;5.27;;;;;;;;;;4967762;28;20227;-73
2022/06/22 00:51:01;;;;;;;9.87;5.67;;;;;;;;;;4980016;28;20233;-73
2022/06/22 00:53:58;;;;;;;10.47;4.90;;;;;;;;;;4978736;28;20223;-73
2022/06/22 00:56:36;;;;;;;10.73;5.63;;;;;;;;;;4972747;28;217020;-74
2022/06/22 00:59:12;;;;;;;10.17;5.27;;;;;;;;;;4981933;28;20249;-73
2022/06/22 01:01:38;;;;;;;8.53;5.40;;;;;;;;;;4963363;28;20228;-73
2022/06/22 01:04:09;;;;;;;8.33;5.67;;;;;;;;;;4960266;28;20666;-73
2022/06/22 01:06:38;;;;;;;8.93;5.67;;;;;;;;;;4954125;28;20232;-73
2022/06/22 01:09:08;;;;;;;8.53;5.43;;;;;;;;;;4934863;28;20224;-73
2022/06/22 01:14:29;;;;;;;9.60;6.00;;;;;;;;;;4944808;28;214461;-73
2022/06/22 01:16:57;;;;;;;10.60;6.10;;;;;;;;;;4974230;28;217769;-73
2022/06/22 01:19:39;;;;;;;8.93;5.80;;;;;;;;;;4978844;28;20292;-73
2022/06/22 01:22:09;;;;;;;11.93;6.10;;;;;;;;;;4974741;28;214831;-73
2022/06/22 01:25:02;;;;;;;11.10;5.83;;;;;;;;;;4933198;28;20322;-73
2022/06/22 01:27:31;;;;;;;12.00;6.10;;;;;;;;;;4910319;28;20227;-73
2022/06/22 01:30:00;;;;;;;15.17;6.40;;;;;;;;;;4964356;28;234060;-73
2022/06/22 01:32:34;;;;;;;11.67;6.40;;;;;;;;;;4966767;28;20240;-73
2022/06/22 01:35:01;;;;;;;12.63;6.20;;;;;;;;;;4962118;28;20224;-73
2022/06/22 01:37:29;;;;;;;12.87;6.67;;;;;;;;;;4894932;28;20227;-73
2022/06/22 01:39:57;;;;;;;10.87;6.93;;;;;;;;;;4960890;28;20232;-73
2022/06/22 01:42:25;;;;;;;11.93;6.10;;;;;;;;;;4958364;28;20593;-73
2022/06/22 01:44:55;;;;;;;7.90;5.63;;;;;;;;;;4955555;28;20684;-73
2022/06/22 01:47:48;;;;;;;10.23;5.83;;;;;;;;;;4946555;28;20224;-73
2022/06/22 01:50:30;;;;;;;10.37;6.10;;;;;;;;;;4936332;28;20242;-73
2022/06/22 01:53:06;;;;;;;11.23;6.23;;;;;;;;;;4966921;28;20239;-73
2022/06/22 01:55:39;;;;;;;11.07;6.17;;;;;;;;;;4948890;28;20295;-73
2022/06/22 01:58:29;;;;;;;11.63;5.90;;;;;;;;;;4979283;28;20223;-72
2022/06/22 02:00:57;;;;;;;13.53;6.23;;;;;;;;;;4934141;28;232906;-72
2022/06/22 02:03:26;;;;;;;9.73;6.43;;;;;;;;;;4963038;28;20564;-73
2022/06/22 02:05:56;;;;;;;10.67;5.83;;;;;;;;;;4961014;28;20231;-73
2022/06/22 02:08:23;;;;;;;8.70;5.80;;;;;;;;;;4951986;28;20613;-73
2022/06/22 02:10:52;;;;;;;11.17;6.03;;;;;;;;;;4976336;28;20215;-73
2022/06/22 02:13:37;;;;;;;10.43;5.63;;;;;;;;;;4971587;28;20293;-74
2022/06/22 02:16:04;;;;;;;9.87;6.27;;;;;;;;;;4971217;28;20324;-73
2022/06/22 02:18:38;;;;;;;10.23;5.73;;;;;;;;;;4931591;28;230136;-73
2022/06/22 02:21:22;;;;;;;8.63;5.93;;;;;;;;;;4964366;28;20587;-73
2022/06/22 02:23:55;;;;;;;9.10;5.27;;;;;;;;;;4980271;28;20228;-72
2022/06/22 02:26:31;;;;;;;8.20;5.40;;;;;;;;;;4950567;28;217481;-73
2022/06/22 02:28:57;;;;;;;12.43;6.00;;;;;;;;;;4977619;28;20253;-73
2022/06/22 02:31:24;;;;;;;9.10;5.97;;;;;;;;;;4985301;28;20394;-73
2022/06/22 02:33:51;;;;;;;8.43;5.63;;;;;;;;;;4969791;28;20242;-73
2022/06/22 02:36:18;;;;;;;12.90;6.30;;;;;;;;;;4981233;28;20730;-72
2022/06/22 02:38:47;;;;;;;8.77;5.83;;;;;;;;;;4993414;28;20221;-72
2022/06/22 02:46:45;;;;;;;10.20;5.83;;;;;;;;;;4922913;28;20326;-72
2022/06/22 02:49:31;;;;;;;9.87;6.07;;;;;;;;;;4970543;28;20743;-72
2022/06/22 02:51:58;;;;;;;10.93;5.90;;;;;;;;;;4942836;28;222486;-72
2022/06/22 02:54:30;;;;;;;12.37;6.20;;;;;;;;;;4914682;28;237192;-72
2022/06/22 02:57:00;;;;;;;8.50;5.73;;;;;;;;;;4954091;28;218651;-72
2022/06/22 02:59:26;;;;;;;10.20;6.43;;;;;;;;;;4917230;28;219069;-72
2022/06/22 03:01:53;;;;;;;7.73;5.73;;;;;;;;;;4954440;28;218554;-71
2022/06/22 03:04:38;;;;;;;12.83;5.80;;;;;;;;;;4950635;28;220224;-72
2022/06/22 03:08:06;;;;;;;12.13;5.90;;;;;;;;;;4925250;28;215295;-71
2022/06/22 03:11:23;;;;;;;9.43;5.67;;;;;;;;;;4939395;28;20274;-71
2022/06/22 03:14:35;;;;;;;8.90;5.50;;;;;;;;;;4927177;28;230009;-71
2022/06/22 03:18:09;;;;;;;11.70;5.77;;;;;;;;;;4841825;28;222234;-72
2022/06/22 03:21:16;;;;;;;;;;;;;;;;;;;;;
2022/06/22 03:24:57;;;;;;;10.30;5.17;;;;;;;;;;4856518;29;21089;-72
2022/06/22 03:31:41;;;;;;;10.30;5.37;;;;;;;;;;4852903;29;22586;-72
2022/06/22 03:34:57;;;;;;;10.00;4.97;;;;;;;;;;4795604;29;221267;-71
2022/06/22 03:41:37;;;;;;;8.00;4.53;;;;;;;;;;4876306;29;217426;-72
2022/06/22 03:45:25;;;;;;;8.43;4.13;;;;;;;;;;4853027;29;218270;-71
2022/06/22 03:55:40;;;;;;;8.87;3.80;;;;;;;;;;4945871;28;215794;-71
2022/06/22 03:58:53;;;;;;;6.40;3.50;;;;;;;;;;4857232;28;219196;-72
2022/06/22 04:09:02;;;;;;;8.47;3.70;;;;;;;;;;4824910;29;220755;-73
2022/06/22 04:12:16;;;;;;;7.23;3.20;;;;;;;;;;4853042;29;215076;-73
2022/06/22 04:34:12;;;;;;;5.73;3.40;;;;;;;;;;4848704;29;224653;-73
2022/06/22 04:37:02;;;;;;;6.23;3.33;;;;;;;;;;4939875;28;216618;-73
2022/06/22 04:40:40;;;;;;;6.63;3.00;;;;;;;;;;4906634;28;243001;-72
2022/06/22 04:44:12;;;;;;;5.10;3.30;;;;;;;;;;4858888;29;228720;-70
2022/06/22 04:47:33;;;;;;;5.73;3.27;;;;;;;;;;4850628;29;20254;-72
2022/06/22 04:50:49;;;;;;;7.00;3.47;;;;;;;;;;4838627;29;219277;-71
2022/06/22 04:57:45;;;;;;;6.60;3.50;;;;;;;;;;4794837;28;26723;-71
2022/06/22 05:01:14;;;;;;;7.17;3.37;;;;;;;;;;4812882;28;662318;-72
2022/06/22 05:03:45;;;;;;;7.20;3.40;;;;;;;;;;4811647;28;219370;-72
2022/06/22 05:06:36;;;;;;;6.37;3.23;;;;;;;;;;4895490;28;234062;-70
2022/06/22 05:09:09;;;;;;;5.43;3.30;;;;;;;;;;4815207;29;223238;-72
2022/06/22 05:11:53;;;;;;;6.47;3.13;;;;;;;;;;4892882;28;234516;-71
2022/06/22 05:14:26;;;;;;;7.13;3.27;;;;;;;;;;4924758;28;40168;-68
2022/06/22 05:16:57;;;;;;;7.90;3.57;;;;;;;;;;4929384;28;21595;-69
2022/06/22 05:19:26;;;;;;;6.63;3.20;;;;;;;;;;4934216;28;217821;-68
2022/06/22 05:21:53;;;;;;;7.23;3.63;;;;;;;;;;4921822;28;52085;-71
2022/06/22 05:24:20;;;;;;;6.87;3.20;;;;;;;;;;4871804;28;224639;-71
2022/06/22 05:26:48;;;;;;;6.10;2.97;;;;;;;;;;4919132;28;213482;-72
2022/06/22 05:29:18;;;;;;;5.23;3.30;;;;;;;;;;4893142;28;218954;-71
2022/06/22 05:31:49;;;;;;;6.07;3.03;;;;;;;;;;4951112;28;232166;-71
2022/06/22 05:34:26;;;;;;;6.60;2.77;;;;;;;;;;4954680;28;232827;-71
2022/06/22 05:36:58;;;;;;;5.33;2.70;;;;;;;;;;4967454;28;219075;-71
2022/06/22 05:39:25;;;;;;;6.97;3.00;;;;;;;;;;4961155;28;20243;-71
2022/06/22 05:41:53;;;;;;;7.03;3.10;;;;;;;;;;4983099;28;20219;-71
2022/06/22 05:44:20;;;;;;;6.47;3.03;;;;;;;;;;4967143;28;20228;-71
2022/06/22 05:46:54;;;;;;;6.33;3.50;;;;;;;;;;4982792;28;20247;-71
2022/06/22 05:49:26;;;;;;;5.37;3.00;;;;;;;;;;4975902;28;20245;-71
2022/06/22 05:51:55;;;;;;;6.53;3.20;;;;;;;;;;4982089;28;20308;-71
2022/06/22 05:54:27;;;;;;;7.33;2.87;;;;;;;;;;4981545;28;20355;-71
2022/06/22 05:57:00;;;;;;;5.07;2.83;;;;;;;;;;4965172;28;20269;-71
2022/06/22 05:59:33;;;;;;;6.30;2.80;;;;;;;;;;4945536;28;20232;-71
2022/06/22 06:02:06;;;;;;;7.17;2.80;;;;;;;;;;4977011;28;20645;-71
2022/06/22 06:04:37;;;;;;;5.17;3.07;;;;;;;;;;4953241;28;20227;-71
2022/06/22 06:07:11;;;;;;;7.20;2.43;;;;;;;;;;4995627;28;20248;-71
2022/06/22 06:09:37;;;;;;;5.57;2.60;;;;;;;;;;4983383;28;20228;-71
2022/06/22 06:12:07;;;;;;;4.00;2.07;;;;;;;;;;4984125;28;20240;-70
2022/06/22 06:14:34;;;;;;;4.57;2.57;;;;;;;;;;4955980;28;20235;-72
2022/06/22 06:17:03;;;;;;;5.87;2.00;;;;;;;;;;4983887;28;20224;-71
2022/06/22 06:19:31;;;;;;;3.63;1.90;;;;;;;;;;4982018;28;20232;-71
2022/06/22 06:21:58;;;;;;;6.60;2.23;;;;;;;;;;4983719;28;23311;-70
2022/06/22 06:24:35;;;;;;;4.10;2.10;;;;;;;;;;4979857;28;20701;-72
2022/06/22 06:29:56;;;;;;;5.07;2.00;;;;;;;;;;4963422;28;20232;-71
2022/06/22 06:32:38;;;;;;;4.17;2.00;;;;;;;;;;4966658;28;20702;-72
2022/06/22 06:35:22;;;;;;;5.93;1.90;;;;;;;;;;4981336;28;20281;-71
2022/06/22 06:38:15;;;;;;;6.30;2.20;;;;;;;;;;4983961;28;20619;-71
2022/06/22 06:40:57;;;;;;;4.77;2.20;;;;;;;;;;4976406;28;20572;-71
2022/06/22 06:43:36;;;;;;;4.07;1.93;;;;;;;;;;4968420;28;20239;-72
2022/06/22 06:46:22;;;;;;;5.60;2.23;;;;;;;;;;4891568;28;216328;-71
2022/06/22 06:48:56;;;;;;;5.33;2.37;;;;;;;;;;4886244;28;677926;-73
2022/06/22 06:51:43;;;;;;;3.90;2.30;;;;;;;;;;4975578;28;20216;-71
2022/06/22 06:54:13;;;;;;;4.87;2.30;;;;;;;;;;4896616;28;219581;-72
2022/06/22 06:56:45;;;;;;;4.63;2.13;;;;;;;;;;4874201;28;230038;-73
2022/06/22 06:59:16;;;;;;;5.03;2.20;;;;;;;;;;4924060;28;217587;-73
2022/06/22 07:01:45;;;;;;;4.87;2.30;;;;;;;;;;4928905;28;227952;-73
2022/06/22 07:04:32;;;;;;;5.40;2.67;;;;;;;;;;4955443;28;220097;-73
2022/06/22 07:07:01;;;;;;;6.33;2.50;;;;;;;;;;4945341;28;221679;-72
2022/06/22 07:09:31;;;;;;;4.87;2.60;;;;;;;;;;4914571;28;231254;-72
2022/06/22 07:12:01;;;;;;;4.10;2.20;;;;;;;;;;4914952;28;20224;-72
2022/06/22 07:14:32;;;;;;;5.10;2.10;;;;;;;;;;4868594;28;264577;-75
2022/06/22 07:17:00;;;;;;;4.70;1.97;;;;;;;;;;4922616;28;20319;-71
2022/06/22 07:19:54;;;;;;;5.93;2.30;;;;;;;;;;4956689;28;213540;-72
2022/06/22 07:22:35;;;;;;;5.27;2.17;;;;;;;;;;4892668;28;214913;-70
2022/06/22 07:25:02;;;;;;;4.07;2.00;;;;;;;;;;4912810;28;20248;-73
2022/06/22 07:27:49;;;;;;;7.00;2.43;;;;;;;;;;4948647;28;28407;-73
2022/06/22 07:30:18;;;;;;;6.53;2.20;;;;;;;;;;4963050;28;20243;-69
2022/06/22 07:32:47;;;;;;;4.27;2.20;;;;;;;;;;4959250;28;217204;-71
2022/06/22 07:35:33;;;;;;;4.63;2.20;;;;;;;;;;4966443;28;20233;-69
2022/06/22 07:38:12;;;;;;;7.83;2.37;;;;;;;;;;4949775;28;20243;-70
2022/06/22 07:41:18;;;;;;;4.22;1.92;;;;;;;;;;4841942;28;5088113;-70
2022/06/22 07:43:30;;;;;;;5.57;2.10;;;;;;;;;;4945340;28;40574;-70
2022/06/22 07:45:57;;;;;;;5.70;2.30;;;;;;;;;;4895151;28;231393;-70
2022/06/22 07:48:24;;;;;;;4.33;2.00;;;;;;;;;;4973690;28;20226;-70
2022/06/22 07:50:52;;;;;;;6.33;2.13;;;;;;;;;;4967472;28;27017;-70
2022/06/22 07:53:25;;;;;;;5.23;1.90;;;;;;;;;;4956495;28;233813;-71
2022/06/22 07:55:53;;;;;;;2.87;1.90;;;;;;;;;;4975647;28;20671;-70
2022/06/22 07:58:22;;;;;;;5.10;2.27;;;;;;;;;;4970407;28;20304;-70
2022/06/22 08:00:51;;;;;;;3.43;1.87;;;;;;;;;;4976878;28;20236;-71
2022/06/22 08:03:24;;;;;;;3.80;2.10;;;;;;;;;;4931665;28;20330;-71
2022/06/22 08:05:51;;;;;;;4.63;2.10;;;;;;;;;;4958125;28;20311;-70
2022/06/22 08:08:19;;;;;;;6.37;2.60;;;;;;;;;;4972013;28;20239;-70
2022/06/22 08:10:57;;;;;;;5.00;2.50;;;;;;;;;;4933070;28;20224;-70
2022/06/22 08:13:24;;;;;;;4.13;1.90;;;;;;;;;;4949930;28;20969;-72
2022/06/22 08:16:02;;;;;;;5.13;2.20;;;;;;;;;;4933926;28;221019;-72
2022/06/22 08:18:30;;;;;;;4.33;2.00;;;;;;;;;;4917976;28;20236;-71
2022/06/22 08:20:57;;;;;;;4.00;2.20;;;;;;;;;;4933313;28;20233;-72
2022/06/22 08:23:24;;;;;;;5.97;2.20;;;;;;;;;;4972971;28;20864;-70
2022/06/22 08:26:01;;;;;;;2.83;1.80;;;;;;;;;;4915833;28;20237;-71
2022/06/22 08:28:29;;;;;;;8.53;2.03;;;;;;;;;;4926451;28;217201;-72
2022/06/22 08:30:58;;;;;;;6.83;2.40;;;;;;;;;;4934826;28;220630;-74
2022/06/22 08:33:45;;;;;;;2.93;1.80;;;;;;;;;;4941032;28;20239;-74
2022/06/22 08:36:15;;;;;;;4.20;2.00;;;;;;;;;;4917630;28;20233;-73
2022/06/22 08:39:05;;;;;;;6.30;2.10;;;;;;;;;;4935368;28;20311;-72
2022/06/22 08:41:50;;;;;;;4.33;1.87;;;;;;;;;;4954897;28;218610;-72
2022/06/22 08:44:17;;;;;;;4.13;1.90;;;;;;;;;;4901418;28;217349;-72
2022/06/22 08:47:03;;;;;;;4.80;2.10;;;;;;;;;;4951727;28;20996;-71
2022/06/22 08:49:46;;;;;;;6.23;2.13;;;;;;;;;;4970311;28;25315;-72
2022/06/22 08:52:31;;;;;;;6.17;2.27;;;;;;;;;;4966488;28;20319;-71
2022/06/22 08:55:28;;;;;;;2.77;1.90;;;;;;;;;;4945494;28;20237;-72
2022/06/22 08:58:15;;;;;;;5.77;2.03;;;;;;;;;;4920651;28;232046;-71
2022/06/22 09:01:05;;;;;;;2.77;1.80;;;;;;;;;;4903717;28;20240;-72
2022/06/22 09:03:45;;;;;;;2.63;1.80;;;;;;;;;;4949612;28;20236;-71
2022/06/22 09:06:15;;;;;;;4.37;1.63;;;;;;;;;;4895933;28;288369;-75
2022/06/22 09:09:01;;;;;;;4.37;1.70;;;;;;;;;;4879176;28;20221;-73
2022/06/22 09:11:28;;;;;;;4.80;2.10;;;;;;;;;;4931089;28;29307;-71
2022/06/22 09:14:27;;;;;;;3.17;1.90;;;;;;;;;;4936933;28;214374;-70
2022/06/22 09:16:57;;;;;;;4.87;1.67;;;;;;;;;;4922922;28;23721;-69
2022/06/22 09:19:24;;;;;;;3.37;1.57;;;;;;;;;;4933743;28;20231;-70
2022/06/22 09:22:10;;;;;;;3.83;1.60;;;;;;;;;;4936931;28;20237;-70
2022/06/22 09:24:41;;;;;;;4.33;1.90;;;;;;;;;;4944414;28;20236;-69
2022/06/22 09:27:18;;;;;;;6.50;1.90;;;;;;;;;;4940712;28;20241;-69
2022/06/22 09:29:52;;;;;;;3.93;2.00;;;;;;;;;;4941807;28;24228;-69
2022/06/22 09:32:29;;;;;;;4.33;1.60;;;;;;;;;;4948053;28;20231;-71
2022/06/22 09:35:14;;;;;;;5.80;1.63;;;;;;;;;;4935648;28;220520;-68
2022/06/22 09:37:59;;;;;;;6.27;1.80;;;;;;;;;;4942624;28;20275;-71
2022/06/22 09:40:26;;;;;;;3.60;1.60;;;;;;;;;;4846629;28;216143;-72
2022/06/22 09:43:12;;;;;;;3.70;1.63;;;;;;;;;;4949945;28;25264;-70
2022/06/22 09:45:43;;;;;;;3.47;1.70;;;;;;;;;;4922690;28;20248;-71
2022/06/22 09:48:22;;;;;;;3.17;1.50;;;;;;;;;;4925854;28;221917;-69
2022/06/22 09:50:57;;;;;;;4.70;1.43;;;;;;;;;;4941066;28;20346;-70
2022/06/22 09:53:39;;;;;;;3.80;1.40;;;;;;;;;;4936517;28;20232;-73
2022/06/22 09:56:27;;;;;;;3.93;1.60;;;;;;;;;;4951042;28;216668;-72
2022/06/22 09:59:08;;;;;;;5.73;1.97;;;;;;;;;;4934851;28;224243;-72
2022/06/22 10:01:54;;;;;;;2.97;1.50;;;;;;;;;;4938425;28;20242;-72
2022/06/22 10:04:40;;;;;;;5.23;2.00;;;;;;;;;;4943298;28;219730;-73
2022/06/22 10:07:13;;;;;;;3.13;1.70;;;;;;;;;;4938751;28;222328;-72
2022/06/22 10:09:46;;;;;;;3.43;1.30;;;;;;;;;;4929710;28;227881;-72
2022/06/22 10:12:35;;;;;;;2.80;1.40;;;;;;;;;;4932998;28;214600;-72
2022/06/22 10:15:05;;;;;;;4.63;1.80;;;;;;;;;;4890810;28;234618;-72
2022/06/22 10:17:32;;;;;;;5.13;1.67;;;;;;;;;;4918944;28;223172;-72
2022/06/22 10:20:25;;;;;;;5.50;1.97;;;;;;;;;;4949182;28;231484;-72
2022/06/22 10:23:09;;;;;;;4.17;1.53;;;;;;;;;;4975454;28;222082;-72
2022/06/22 10:25:35;;;;;;;3.23;1.30;;;;;;;;;;4981489;28;20227;-72
2022/06/22 10:28:22;;;;;;;4.43;1.53;;;;;;;;;;4967460;28;20282;-72
2022/06/22 10:30:49;;;;;;;2.00;1.33;;;;;;;;;;4966439;28;215633;-72
2022/06/22 10:33:46;;;;;;;3.83;1.70;;;;;;;;;;4960023;28;216942;-72
2022/06/22 10:36:23;;;;;;;4.13;1.40;;;;;;;;;;4969934;28;217387;-72
2022/06/22 10:39:30;;;;;;;3.97;1.70;;;;;;;;;;4932432;28;221363;-72
2022/06/22 10:45:11;;;;;;;5.20;1.23;;;;;;;;;;4919463;28;20316;-72
2022/06/22 10:47:50;;;;;;;3.73;1.40;;;;;;;;;;4948000;28;215764;-72
2022/06/22 10:50:17;;;;;;;3.03;1.30;;;;;;;;;;4982415;28;20303;-71
2022/06/22 10:53:07;;;;;;;4.73;1.60;;;;;;;;;;4956838;28;20259;-69
2022/06/22 10:55:56;;;;;;;5.37;1.63;;;;;;;;;;4972009;28;32428;-71
2022/06/22 10:58:41;;;;;;;4.07;1.40;;;;;;;;;;4943140;28;20225;-71
2022/06/22 11:01:23;;;;;;;2.60;1.30;;;;;;;;;;4972352;28;20602;-70
2022/06/22 11:03:57;;;;;;;4.60;1.67;;;;;;;;;;4962977;28;217660;-70
2022/06/22 11:06:46;;;;;;;4.33;1.70;;;;;;;;;;4957125;28;20579;-69
2022/06/22 11:09:13;;;;;;;10.60;1.83;;;;;;;;;;4906261;28;223010;-70
2022/06/22 11:11:40;;;;;;;6.20;2.00;;;;;;;;;;4966706;28;27852;-71
2022/06/22 11:14:16;;;;;;;3.00;1.60;;;;;;;;;;4965062;28;20236;-68
2022/06/22 11:16:50;;;;;;;6.07;2.00;;;;;;;;;;4969526;28;30454;-68
2022/06/22 11:19:17;;;;;;;2.53;1.40;;;;;;;;;;4969941;28;20231;-68
2022/06/22 11:22:06;;;;;;;3.77;1.50;;;;;;;;;;4971538;28;20699;-69
2022/06/22 11:24:33;;;;;;;3.23;1.50;;;;;;;;;;4947969;28;20241;-68
2022/06/22 11:32:49;;;;;;;4.27;1.83;;;;;;;;;;4984737;28;20228;-69
2022/06/22 11:35:28;;;;;;;2.87;1.63;;;;;;;;;;4964964;28;20228;-68
2022/06/22 11:38:04;;;;;;;4.53;1.87;;;;;;;;;;4984195;28;20266;-69
2022/06/22 11:40:36;;;;;;;6.03;2.13;;;;;;;;;;4983632;28;20228;-69
2022/06/22 11:43:21;;;;;;;3.70;1.60;;;;;;;;;;4984389;28;20601;-69
2022/06/22 11:45:56;;;;;;;5.40;1.70;;;;;;;;;;4977254;28;20223;-69
2022/06/22 11:48:45;;;;;;;4.00;1.83;;;;;;;;;;4962811;28;20231;-69
2022/06/22 11:51:23;;;;;;;3.77;1.60;;;;;;;;;;4980466;28;20225;-69
2022/06/22 11:54:01;;;;;;;3.73;1.23;;;;;;;;;;4985019;28;20235;-69
2022/06/22 11:56:27;;;;;;;1.97;1.40;;;;;;;;;;4968314;28;20226;-69
2022/06/22 11:59:20;;;;;;;3.00;1.53;;;;;;;;;;4984138;28;20243;-70
2022/06/22 12:01:53;;;;;;;5.20;1.53;;;;;;;;;;4976040;28;20274;-69
2022/06/22 12:04:39;;;;;;;4.07;1.50;;;;;;;;;;4966425;28;20592;-69
2022/06/22 12:07:13;;;;;;;2.03;1.20;;;;;;;;;;4983579;28;20243;-69
2022/06/22 12:09:59;;;;;;;2.70;1.30;;;;;;;;;;4970146;28;20233;-69
2022/06/22 12:12:46;;;;;;;2.57;1.37;;;;;;;;;;4984124;28;20239;-69
2022/06/22 12:15:25;;;;;;;4.87;2.07;;;;;;;;;;4982421;28;20286;-69
2022/06/22 12:18:11;;;;;;;5.33;1.53;;;;;;;;;;4983020;28;20232;-69
2022/06/22 12:21:02;;;;;;;3.23;1.53;;;;;;;;;;4984629;28;20227;-69
2022/06/22 12:23:36;;;;;;;8.30;1.60;;;;;;;;;;4984281;28;20306;-69
2022/06/22 12:26:15;;;;;;;3.17;1.50;;;;;;;;;;4982262;28;20255;-69
2022/06/22 12:28:50;;;;;;;2.90;1.37;;;;;;;;;;4964298;28;22569;-69
2022/06/22 12:31:19;;;;;;;2.40;1.50;;;;;;;;;;4965490;28;20243;-68
2022/06/22 12:33:48;;;;;;;3.07;1.70;;;;;;;;;;4963198;28;20599;-69
2022/06/22 12:36:18;;;;;;;2.83;1.60;;;;;;;;;;4963862;28;20657;-69
2022/06/22 12:38:46;;;;;;;3.93;1.47;;;;;;;;;;4982058;28;20232;-69
2022/06/22 12:41:46;;;;;;;2.73;1.60;;;;;;;;;;4969075;28;20239;-69
2022/06/22 12:44:32;;;;;;;2.50;1.77;;;;;;;;;;4960519;28;20229;-69
2022/06/22 12:47:22;;;;;;;2.67;1.53;;;;;;;;;;4985934;28;20337;-69
2022/06/22 12:49:54;;;;;;;4.00;1.90;;;;;;;;;;4951458;28;20303;-70
2022/06/22 12:52:27;;;;;;;2.17;1.43;;;;;;;;;;4969260;28;20679;-71
2022/06/22 12:54:59;;;;;;;3.63;1.80;;;;;;;;;;4982280;28;20243;-71
2022/06/22 12:57:37;;;;;;;4.43;2.40;;;;;;;;;;4954528;28;20219;-71
2022/06/22 13:00:07;;;;;;;3.40;1.63;;;;;;;;;;4946612;28;20263;-71
2022/06/22 13:02:35;;;;;;;4.13;1.80;;;;;;;;;;4964812;28;20372;-72
2022/06/22 13:05:09;;;;;;;2.60;1.80;;;;;;;;;;4962283;28;20231;-71
2022/06/22 13:07:46;;;;;;;2.97;1.80;;;;;;;;;;4950415;28;20307;-71
2022/06/22 13:10:17;;;;;;;3.73;1.80;;;;;;;;;;4982824;28;20695;-72
2022/06/22 13:12:56;;;;;;;2.57;1.63;;;;;;;;;;4964793;28;20274;-72
2022/06/22 13:15:29;;;;;;;3.03;1.50;;;;;;;;;;4957230;28;20301;-72
2022/06/22 13:18:26;;;;;;;4.20;2.00;;;;;;;;;;4982208;28;20324;-72
2022/06/22 13:20:58;;;;;;;2.83;1.70;;;;;;;;;;4953958;28;20298;-72
2022/06/22 13:23:28;;;;;;;4.83;1.83;;;;;;;;;;4981581;28;20224;-71
2022/06/22 13:26:11;;;;;;;4.27;2.00;;;;;;;;;;4980229;28;20244;-73
2022/06/22 13:28:40;;;;;;;4.03;2.03;;;;;;;;;;4981687;28;20306;-71
2022/06/22 13:31:26;;;;;;;4.20;1.90;;;;;;;;;;4966111;28;20217;-71
2022/06/22 13:33:56;;;;;;;3.83;1.77;;;;;;;;;;4980960;28;20236;-72
2022/06/22 13:36:32;;;;;;;3.83;2.03;;;;;;;;;;4982286;28;20223;-71
2022/06/22 13:39:01;;;;;;;5.53;2.10;;;;;;;;;;4962672;28;20314;-72
2022/06/22 13:41:51;;;;;;;3.07;1.80;;;;;;;;;;4951673;28;20247;-71
2022/06/22 13:44:18;;;;;;;3.30;1.83;;;;;;;;;;4979502;28;20310;-71
2022/06/22 13:46:52;;;;;;;3.97;2.00;;;;;;;;;;4984532;28;20270;-71
2022/06/22 13:49:24;;;;;;;3.87;2.20;;;;;;;;;;4981412;28;20227;-70
2022/06/22 13:52:01;;;;;;;5.00;1.80;;;;;;;;;;4988369;28;20738;-71
2022/06/22 13:54:35;;;;;;;4.83;2.37;;;;;;;;;;4981919;28;20262;-70
2022/06/22 13:57:29;;;;;;;3.73;2.13;;;;;;;;;;4963786;28;20229;-71
2022/06/22 13:59:56;;;;;;;4.73;1.93;;;;;;;;;;4980469;28;20278;-70
2022/06/22 14:02:41;;;;;;;4.40;1.97;;;;;;;;;;4984001;28;20307;-71
2022/06/22 14:05:27;;;;;;;5.87;1.87;;;;;;;;;;4982150;28;20224;-70
2022/06/22 14:08:10;;;;;;;9.53;2.27;;;;;;;;;;4979907;28;20223;-71
2022/06/22 14:10:37;;;;;;;6.10;2.07;;;;;;;;;;4982876;28;20231;-71
2022/06/22 14:13:26;;;;;;;6.43;2.00;;;;;;;;;;4970784;28;20231;-71
2022/06/22 14:16:00;;;;;;;7.73;2.50;;;;;;;;;;4980692;28;20308;-71
2022/06/22 14:18:27;;;;;;;5.83;2.23;;;;;;;;;;4980878;28;29770;-71
2022/06/22 14:21:12;;;;;;;6.27;2.40;;;;;;;;;;4983950;28;20270;-71
2022/06/22 14:23:58;;;;;;;8.60;2.23;;;;;;;;;;4980380;28;20230;-70
2022/06/22 14:26:24;;;;;;;9.13;2.30;;;;;;;;;;4983087;28;20686;-71
2022/06/22 14:28:51;;;;;;;9.40;2.57;;;;;;;;;;4984868;28;20640;-71
2022/06/22 14:31:20;;;;;;;7.13;2.20;;;;;;;;;;4987918;28;20231;-70
2022/06/22 14:33:56;;;;;;;14.47;2.60;;;;;;;;;;4986157;28;20319;-70
2022/06/22 14:36:45;;;;;;;9.27;2.40;;;;;;;;;;4983901;28;20236;-71
2022/06/22 14:39:13;;;;;;;10.57;2.70;;;;;;;;;;4983876;28;20262;-71
2022/06/22 14:41:58;;;;;;;16.30;3.30;;;;;;;;;;4987456;28;20251;-71
2022/06/22 14:44:32;;;;;;;9.63;2.60;;;;;;;;;;4985021;28;20277;-72
2022/06/22 14:46:59;;;;;;;6.30;2.70;;;;;;;;;;4980772;28;20626;-66
2022/06/22 14:49:52;;;;;;;4.90;2.30;;;;;;;;;;4987087;28;20220;-66
2022/06/22 14:52:19;;;;;;;7.67;2.47;;;;;;;;;;4966673;28;20290;-66
2022/06/22 14:54:55;;;;;;;4.00;2.30;;;;;;;;;;4968306;28;20264;-66
2022/06/22 14:57:50;;;;;;;6.73;2.83;;;;;;;;;;4964456;28;20608;-66
2022/06/22 15:00:17;;;;;;;9.43;2.67;;;;;;;;;;4964825;28;20242;-67
2022/06/22 15:02:55;;;;;;;9.80;2.80;;;;;;;;;;4966297;28;20228;-66
2022/06/22 15:05:29;;;;;;;7.97;2.73;;;;;;;;;;4955411;28;20226;-66
2022/06/22 15:08:01;;;;;;;4.60;2.27;;;;;;;;;;4947004;28;20711;-66
2022/06/22 15:10:36;;;;;;;3.63;1.90;;;;;;;;;;4951669;28;20283;-66
2022/06/22 15:13:03;;;;;;;5.20;2.90;;;;;;;;;;4952289;28;20665;-67
2022/06/22 15:15:42;;;;;;;5.07;2.50;;;;;;;;;;4954767;28;20229;-66
2022/06/22 15:18:14;;;;;;;4.63;2.60;;;;;;;;;;4960101;28;20240;-66
2022/06/22 15:20:45;;;;;;;10.27;2.83;;;;;;;;;;4955417;28;20721;-67
2022/06/22 15:23:13;;;;;;;5.63;2.20;;;;;;;;;;4965748;28;20229;-66
2022/06/22 15:26:06;;;;;;;15.87;3.10;;;;;;;;;;4951700;28;20316;-67
2022/06/22 15:28:51;;;;;;;4.27;2.67;;;;;;;;;;4966195;28;20244;-66
2022/06/22 15:31:27;;;;;;;4.30;2.57;;;;;;;;;;4983905;28;20235;-70
2022/06/22 15:34:03;;;;;;;7.37;2.70;;;;;;;;;;4949455;28;20244;-66
2022/06/22 15:36:37;;;;;;;5.53;2.60;;;;;;;;;;4984168;28;20249;-66
2022/06/22 15:39:10;;;;;;;4.73;2.20;;;;;;;;;;5003864;28;20297;-65
2022/06/22 15:41:56;;;;;;;5.63;2.63;;;;;;;;;;4986139;28;20273;-65
2022/06/22 15:44:25;;;;;;;3.63;2.23;;;;;;;;;;5006224;28;20235;-65
2022/06/22 15:46:51;;;;;;;4.67;2.60;;;;;;;;;;4985690;28;20698;-66
2022/06/22 15:49:22;;;;;;;5.03;2.63;;;;;;;;;;4983876;28;20230;-66
2022/06/22 15:51:54;;;;;;;6.30;2.30;;;;;;;;;;5001634;28;20228;-66
2022/06/22 15:54:33;;;;;;;9.07;2.60;;;;;;;;;;4985931;28;20357;-66
2022/06/22 15:57:03;;;;;;;7.33;2.77;;;;;;;;;;4988195;28;20299;-69
2022/06/22 15:59:31;;;;;;;6.57;2.87;;;;;;;;;;5003266;28;20266;-69
2022/06/22 16:02:14;;;;;;;6.90;2.80;;;;;;;;;;5005136;28;20764;-66
2022/06/22 16:04:47;;;;;;;12.37;3.17;;;;;;;;;;4985622;28;20288;-68
2022/06/22 16:07:18;;;;;;;9.40;3.10;;;;;;;;;;4987146;28;20293;-67
2022/06/22 16:09:51;;;;;;;4.37;2.70;;;;;;;;;;5000083;28;20230;-67
2022/06/22 16:15:14;;;;;;;6.70;2.57;;;;;;;;;;5003126;28;20237;-67
2022/06/22 16:17:44;;;;;;;5.90;2.60;;;;;;;;;;5001484;28;20246;-67
2022/06/22 16:20:31;;;;;;;10.47;3.13;;;;;;;;;;5004183;28;20293;-65
2022/06/22 16:23:07;;;;;;;5.67;2.70;;;;;;;;;;5003171;28;20235;-65
2022/06/22 16:25:52;;;;;;;12.07;3.00;;;;;;;;;;5003151;28;20234;-65
2022/06/22 16:28:30;;;;;;;12.53;2.87;;;;;;;;;;5002390;28;20227;-67
2022/06/22 16:31:03;;;;;;;4.87;2.53;;;;;;;;;;5002995;28;20223;-66
2022/06/22 16:33:39;;;;;;;8.90;2.80;;;;;;;;;;4993364;28;20270;-67
2022/06/22 16:36:16;;;;;;;8.80;3.13;;;;;;;;;;4969772;28;20230;-67
2022/06/22 16:38:49;;;;;;;7.60;2.60;;;;;;;;;;4990137;28;20329;-66
2022/06/22 16:41:38;;;;;;;8.23;3.40;;;;;;;;;;4996556;28;20219;-66
2022/06/22 16:44:32;;;;;;;6.73;3.10;;;;;;;;;;4986345;28;20784;-68
2022/06/22 16:47:11;;;;;;;5.20;2.60;;;;;;;;;;4987527;28;20227;-68
2022/06/22 16:49:42;;;;;;;6.10;2.80;;;;;;;;;;4973629;28;41008;-67